Time;durP1;ratioP1;P1;durP2;ratioP2;P2;SDS_P1;SDS_P2;PMS_P1;PMS_P2;Temp;Humidity;BMP_temperature;BMP_pressure;BME280_temperature;BME280_humidity;BME280_pressure;Samples;Min_cycle;Max_cycle;Signal;HPM_P1;HPM_P2
2022/08/17 00:01:20;;;;;;;29.38;20.27;;;24.30;63.20;;;;;;5114486;28;20020;-74
2022/08/17 00:03:48;;;;;;;31.08;21.45;;;24.20;63.30;;;;;;5114577;28;20133;-74
2022/08/17 00:06:26;;;;;;;29.33;20.60;;;24.20;63.40;;;;;;5114264;28;20028;-73
2022/08/17 00:09:00;;;;;;;27.48;20.98;;;24.10;63.50;;;;;;5114182;28;20094;-73
2022/08/17 00:11:33;;;;;;;27.40;20.55;;;24.10;64.10;;;;;;5114323;28;20020;-73
2022/08/17 00:14:03;;;;;;;25.70;19.52;;;24.10;64.20;;;;;;5113747;28;20463;-73
2022/08/17 00:16:32;;;;;;;25.55;19.15;;;24.00;64.20;;;;;;5114229;28;20027;-73
2022/08/17 00:19:00;;;;;;;29.48;19.75;;;23.90;63.70;;;;;;5114161;28;20024;-73
2022/08/17 00:21:27;;;;;;;27.23;19.83;;;23.90;63.80;;;;;;5114111;28;20514;-73
2022/08/17 00:23:53;;;;;;;26.10;19.90;;;23.90;64.10;;;;;;5114035;28;20032;-73
2022/08/17 00:26:20;;;;;;;26.95;19.20;;;23.90;64.30;;;;;;5113935;28;20475;-73
2022/08/17 00:28:46;;;;;;;28.48;19.85;;;23.80;64.30;;;;;;5113934;28;20041;-74
2022/08/17 00:31:12;;;;;;;26.10;19.05;;;23.70;64.40;;;;;;5113970;28;20024;-74
2022/08/17 00:33:39;;;;;;;27.50;19.98;;;23.80;64.40;;;;;;5113880;28;20020;-74
2022/08/17 00:36:06;;;;;;;28.23;19.20;;;23.80;64.10;;;;;;5113850;28;20012;-74
2022/08/17 00:38:33;;;;;;;26.70;19.23;;;23.90;64.20;;;;;;5113822;28;20024;-74
2022/08/17 00:41:07;;;;;;;25.85;19.13;;;23.90;64.30;;;;;;5113802;28;20023;-73
2022/08/17 00:43:37;;;;;;;28.75;20.00;;;23.80;63.80;;;;;;5113790;28;20055;-73
2022/08/17 00:46:27;;;;;;;26.55;19.13;;;23.80;63.60;;;;;;5113756;28;20020;-73
2022/08/17 00:48:52;;;;;;;27.73;19.38;;;23.70;63.60;;;;;;5113722;28;20028;-73
2022/08/17 00:51:30;;;;;;;29.58;20.10;;;23.70;64.10;;;;;;5113760;28;20080;-73
2022/08/17 00:54:22;;;;;;;27.92;19.10;;;23.80;64.10;;;;;;5113612;28;20054;-73
2022/08/17 00:56:52;;;;;;;27.75;19.23;;;23.80;64.30;;;;;;5113305;28;20047;-73
2022/08/17 00:59:22;;;;;;;29.05;19.60;;;23.80;64.30;;;;;;5113612;28;20084;-73
2022/08/17 01:01:49;;;;;;;26.05;19.35;;;23.70;64.60;;;;;;5113584;28;20421;-73
2022/08/17 01:04:17;;;;;;;24.70;19.55;;;23.60;64.80;;;;;;5113500;28;20024;-73
2022/08/17 01:06:45;;;;;;;28.23;19.67;;;23.60;65.10;;;;;;5113542;28;20072;-73
2022/08/17 01:09:12;;;;;;;28.92;20.42;;;23.60;64.60;;;;;;5113281;28;20048;-73
2022/08/17 01:11:39;;;;;;;26.02;19.70;;;23.50;64.90;;;;;;5112607;28;20032;-73
2022/08/17 01:14:06;;;;;;;27.25;19.45;;;23.50;64.80;;;;;;5113441;28;20027;-73
2022/08/17 01:16:32;;;;;;;26.75;19.75;;;23.40;64.90;;;;;;5113399;28;20024;-73
2022/08/17 01:19:01;;;;;;;29.02;20.17;;;23.40;65.30;;;;;;5113541;28;20054;-73
2022/08/17 01:21:45;;;;;;;25.55;18.90;;;23.40;65.50;;;;;;5113360;28;20027;-73
2022/08/17 01:24:11;;;;;;;26.58;19.35;;;23.30;65.30;;;;;;5113313;28;20028;-73
2022/08/17 01:26:39;;;;;;;26.13;19.23;;;23.20;65.60;;;;;;5115644;28;20152;-73
2022/08/17 01:29:05;;;;;;;25.33;19.35;;;23.30;65.90;;;;;;5116303;28;20023;-73
2022/08/17 01:31:38;;;;;;;26.67;19.83;;;23.30;65.80;;;;;;5117322;28;20020;-73
2022/08/17 01:34:08;;;;;;;27.02;19.33;;;23.40;65.80;;;;;;5117350;28;20372;-73
2022/08/17 01:36:35;;;;;;;26.77;19.60;;;23.30;65.70;;;;;;5117268;28;20023;-73
2022/08/17 01:39:03;;;;;;;26.08;19.65;;;23.30;66.00;;;;;;5117215;28;20020;-73
2022/08/17 01:41:29;;;;;;;26.67;19.65;;;23.20;66.10;;;;;;5117166;28;20024;-73
2022/08/17 01:43:58;;;;;;;31.40;20.60;;;23.10;66.00;;;;;;5117130;28;20428;-73
2022/08/17 01:46:27;;;;;;;25.90;19.50;;;23.10;66.30;;;;;;5117151;28;20016;-73
2022/08/17 01:48:56;;;;;;;27.67;19.25;;;23.00;66.70;;;;;;5117156;28;20080;-73
2022/08/17 01:51:23;;;;;;;29.98;20.17;;;23.10;66.90;;;;;;5116041;28;20028;-74
2022/08/17 01:53:57;;;;;;;26.45;20.00;;;23.10;66.60;;;;;;5116096;28;20031;-74
2022/08/17 01:56:24;;;;;;;26.05;19.20;;;23.20;66.70;;;;;;5116920;28;20020;-73
2022/08/17 01:58:51;;;;;;;25.52;19.52;;;23.10;66.60;;;;;;5116848;28;20016;-73
2022/08/17 02:01:20;;;;;;;26.42;19.50;;;22.90;66.20;;;;;;5116791;28;20008;-73
2022/08/17 02:03:45;;;;;;;27.95;19.52;;;22.90;66.30;;;;;;5116712;28;20027;-73
2022/08/17 02:06:11;;;;;;;25.17;19.35;;;22.90;66.50;;;;;;5116621;28;20024;-74
2022/08/17 02:08:37;;;;;;;27.35;20.10;;;22.90;66.60;;;;;;5116450;28;20044;-74
2022/08/17 02:11:04;;;;;;;27.90;19.58;;;22.90;66.70;;;;;;5116606;28;20084;-74
2022/08/17 02:13:32;;;;;;;27.02;19.60;;;22.90;66.70;;;;;;5116575;28;20070;-74
2022/08/17 02:15:59;;;;;;;27.42;19.45;;;22.90;66.80;;;;;;5116491;28;20084;-74
2022/08/17 02:18:25;;;;;;;29.08;19.35;;;22.90;66.70;;;;;;5116450;28;20031;-74
2022/08/17 02:20:51;;;;;;;27.60;20.48;;;22.90;66.50;;;;;;5116427;28;20020;-73
2022/08/17 02:23:18;;;;;;;29.88;20.50;;;23.00;66.60;;;;;;5116366;28;20027;-73
2022/08/17 02:25:48;;;;;;;28.20;19.98;;;23.10;66.50;;;;;;5116330;28;20024;-73
2022/08/17 02:28:15;;;;;;;27.20;19.85;;;23.10;66.30;;;;;;5116190;28;20026;-74
2022/08/17 02:30:41;;;;;;;32.80;20.00;;;23.20;66.10;;;;;;5116210;28;20020;-73
2022/08/17 02:33:07;;;;;;;31.15;21.08;;;23.10;66.10;;;;;;5116141;28;20047;-74
2022/08/17 02:35:34;;;;;;;28.80;20.45;;;23.10;66.30;;;;;;5116153;28;20031;-74
2022/08/17 02:38:00;;;;;;;27.40;20.05;;;23.10;66.50;;;;;;5115321;28;20065;-73
2022/08/17 02:40:26;;;;;;;27.13;20.15;;;23.10;66.40;;;;;;5116064;28;20020;-73
2022/08/17 02:42:52;;;;;;;27.25;20.35;;;23.10;66.60;;;;;;5115982;28;20024;-73
2022/08/17 02:45:22;;;;;;;29.75;20.30;;;23.00;66.60;;;;;;5115943;28;20032;-74
2022/08/17 02:47:49;;;;;;;30.50;21.05;;;23.00;66.30;;;;;;5116035;28;20024;-73
2022/08/17 02:50:17;;;;;;;28.20;20.33;;;23.10;66.20;;;;;;5115850;28;20114;-73
2022/08/17 02:52:44;;;;;;;29.58;20.75;;;23.10;65.90;;;;;;5115726;28;20020;-73
2022/08/17 02:55:40;;;;;;;27.55;19.83;;;23.10;66.10;;;;;;5115781;28;20058;-73
2022/08/17 02:58:07;;;;;;;29.17;19.40;;;22.90;66.10;;;;;;5115746;28;20020;-74
2022/08/17 03:00:36;;;;;;;28.25;20.10;;;22.80;66.70;;;;;;5115687;28;20054;-74
2022/08/17 03:03:03;;;;;;;29.05;19.90;;;22.80;66.70;;;;;;5115626;28;20044;-73
2022/08/17 03:05:31;;;;;;;26.55;19.33;;;22.80;66.90;;;;;;5115546;28;20024;-73
2022/08/17 03:07:57;;;;;;;25.90;19.92;;;22.70;67.10;;;;;;5115558;28;20050;-74
2022/08/17 03:10:24;;;;;;;26.60;19.50;;;22.80;67.30;;;;;;5115311;28;20036;-74
2022/08/17 03:12:51;;;;;;;31.50;19.92;;;22.80;67.40;;;;;;5115392;28;20020;-73
2022/08/17 03:15:20;;;;;;;27.05;20.05;;;22.80;67.40;;;;;;5115364;28;20024;-73
2022/08/17 03:17:45;;;;;;;27.17;19.45;;;22.80;67.40;;;;;;5115331;28;20046;-73
2022/08/17 03:20:12;;;;;;;28.17;19.33;;;22.80;67.10;;;;;;5114240;28;20035;-73
2022/08/17 03:22:45;;;;;;;27.40;18.77;;;22.80;66.90;;;;;;5115384;28;20028;-73
2022/08/17 03:25:13;;;;;;;27.40;19.42;;;22.90;66.80;;;;;;5115185;28;20028;-74
2022/08/17 03:27:39;;;;;;;26.75;19.55;;;22.90;66.60;;;;;;5115049;28;20020;-74
2022/08/17 03:30:07;;;;;;;26.30;19.23;;;22.90;66.80;;;;;;5115010;28;20051;-73
2022/08/17 03:32:41;;;;;;;26.50;19.50;;;22.90;66.80;;;;;;5115197;28;20039;-74
2022/08/17 03:35:08;;;;;;;27.40;20.45;;;23.00;66.60;;;;;;5114995;28;20051;-74
2022/08/17 03:37:34;;;;;;;28.75;19.38;;;23.00;66.50;;;;;;5114926;28;20032;-73
2022/08/17 03:40:00;;;;;;;28.30;20.10;;;23.00;66.60;;;;;;5114861;28;20032;-73
2022/08/17 03:42:27;;;;;;;28.85;19.88;;;22.90;67.60;;;;;;5114856;28;20031;-74
2022/08/17 03:44:54;;;;;;;30.88;21.30;;;22.90;67.30;;;;;;5114789;28;20042;-73
2022/08/17 03:58:22;;;;;;;28.50;19.55;;;23.00;67.30;;;;;;5114757;28;20030;-74
2022/08/17 04:00:48;;;;;;;27.02;21.20;;;22.90;67.80;;;;;;5114502;28;20052;-73
2022/08/17 04:03:14;;;;;;;28.90;20.77;;;22.80;67.90;;;;;;5114418;28;20036;-74
2022/08/17 04:05:40;;;;;;;30.27;21.40;;;22.80;67.90;;;;;;5114419;28;20057;-74
2022/08/17 04:08:06;;;;;;;30.50;20.65;;;22.80;68.80;;;;;;5114027;28;20027;-74
2022/08/17 04:10:32;;;;;;;31.67;21.10;;;22.80;67.90;;;;;;5114332;28;20035;-73
2022/08/17 04:12:57;;;;;;;30.92;21.13;;;22.80;68.00;;;;;;5114256;28;20039;-73
2022/08/17 04:15:24;;;;;;;34.05;21.88;;;22.80;68.10;;;;;;5114206;28;20024;-73
2022/08/17 04:17:50;;;;;;;34.30;21.50;;;22.80;68.20;;;;;;5114149;28;20084;-73
2022/08/17 04:20:18;;;;;;;33.78;21.85;;;22.80;68.30;;;;;;5114140;28;20027;-73
2022/08/17 04:23:10;;;;;;;31.77;22.30;;;22.70;68.40;;;;;;5114088;28;20051;-73
2022/08/17 04:25:38;;;;;;;31.65;22.42;;;22.80;68.40;;;;;;5114128;28;20032;-73
2022/08/17 04:28:04;;;;;;;34.05;21.23;;;22.70;68.40;;;;;;5114025;28;20038;-73
2022/08/17 04:30:33;;;;;;;29.83;21.63;;;22.70;68.60;;;;;;5113937;28;20020;-74
2022/08/17 04:33:04;;;;;;;28.52;21.05;;;22.70;68.70;;;;;;5113894;28;20048;-74
2022/08/17 04:35:33;;;;;;;32.30;21.70;;;22.60;68.90;;;;;;5113922;28;20100;-73
2022/08/17 04:37:58;;;;;;;33.85;21.70;;;22.70;69.00;;;;;;5113960;28;20054;-74
2022/08/17 04:43:15;;;;;;;32.38;21.27;;;22.80;68.80;;;;;;5113878;28;20391;-74
2022/08/17 04:45:51;;;;;;;31.00;21.83;;;22.70;68.90;;;;;;5113745;28;20020;-73
2022/08/17 04:48:17;;;;;;;32.83;21.98;;;22.70;69.00;;;;;;5113674;28;20052;-73
2022/08/17 04:50:47;;;;;;;34.72;22.27;;;22.70;69.00;;;;;;5113676;28;20046;-74
2022/08/17 04:53:14;;;;;;;31.75;21.45;;;22.70;68.90;;;;;;5113810;28;20035;-74
2022/08/17 04:55:40;;;;;;;32.25;22.02;;;22.70;68.90;;;;;;5113613;28;20016;-74
2022/08/17 04:58:06;;;;;;;33.28;22.48;;;22.70;69.00;;;;;;5113594;28;20050;-74
2022/08/17 05:00:32;;;;;;;33.13;22.17;;;22.70;69.00;;;;;;5113243;28;20028;-74
2022/08/17 05:02:58;;;;;;;29.58;21.55;;;22.70;69.00;;;;;;5113539;28;20062;-73
2022/08/17 05:05:30;;;;;;;32.53;22.90;;;22.80;68.70;;;;;;5113627;28;20032;-73
2022/08/17 05:07:58;;;;;;;31.88;21.92;;;22.80;68.50;;;;;;5113456;28;20050;-74
2022/08/17 05:10:27;;;;;;;29.05;21.42;;;22.80;68.60;;;;;;5113443;28;20067;-74
2022/08/17 05:13:02;;;;;;;31.45;21.45;;;22.80;68.60;;;;;;5113459;28;20048;-74
2022/08/17 05:15:29;;;;;;;32.15;21.55;;;22.80;68.70;;;;;;5113470;28;20020;-73
2022/08/17 05:17:54;;;;;;;30.33;20.67;;;22.70;69.00;;;;;;5113376;28;20028;-74
2022/08/17 05:20:20;;;;;;;28.92;21.33;;;22.70;69.10;;;;;;5113340;28;20052;-73
2022/08/17 05:22:52;;;;;;;32.47;22.50;;;22.60;69.30;;;;;;5113335;28;20020;-73
2022/08/17 05:25:23;;;;;;;32.30;21.77;;;22.60;69.50;;;;;;5113400;28;20024;-74
2022/08/17 05:27:48;;;;;;;32.38;21.38;;;22.70;69.50;;;;;;5113181;28;20024;-74
2022/08/17 05:30:15;;;;;;;29.25;20.40;;;22.70;69.40;;;;;;5113185;28;20051;-74
2022/08/17 05:33:00;;;;;;;31.38;21.25;;;22.70;69.40;;;;;;5113254;28;20024;-74
2022/08/17 05:35:28;;;;;;;31.40;20.77;;;22.70;70.00;;;;;;5113222;28;20020;-74
2022/08/17 05:37:54;;;;;;;31.35;21.15;;;22.60;69.80;;;;;;5113201;28;20046;-74
2022/08/17 05:40:21;;;;;;;32.22;22.33;;;22.60;70.00;;;;;;5113191;28;20020;-74
2022/08/17 05:42:47;;;;;;;34.55;21.35;;;22.60;69.90;;;;;;5113142;28;20032;-74
2022/08/17 05:45:14;;;;;;;33.95;22.02;;;22.60;71.00;;;;;;5113122;28;20038;-74
2022/08/17 05:47:43;;;;;;;29.52;21.00;;;22.60;70.30;;;;;;5113125;28;20088;-73
2022/08/17 05:50:13;;;;;;;32.55;21.23;;;22.70;70.40;;;;;;5113063;28;20042;-73
2022/08/17 05:53:00;;;;;;;31.55;21.95;;;22.70;70.30;;;;;;5113030;28;20027;-73
2022/08/17 05:55:45;;;;;;;32.22;20.92;;;22.80;70.20;;;;;;5113232;28;20020;-73
2022/08/17 05:58:14;;;;;;;31.92;21.15;;;22.70;70.20;;;;;;5113162;28;20020;-73
2022/08/17 06:00:49;;;;;;;30.77;21.38;;;22.80;70.20;;;;;;5112972;28;20053;-73
2022/08/17 06:03:20;;;;;;;31.77;20.95;;;22.80;70.10;;;;;;5112996;28;20467;-73
2022/08/17 06:06:14;;;;;;;33.63;21.37;;;22.80;70.00;;;;;;5113032;28;20031;-73
2022/08/17 06:08:49;;;;;;;35.80;21.23;;;22.80;69.90;;;;;;5112730;28;20040;-73
2022/08/17 06:11:24;;;;;;;32.85;21.20;;;22.80;69.90;;;;;;5112879;28;20024;-73
2022/08/17 06:14:08;;;;;;;33.05;21.70;;;22.80;70.10;;;;;;5115425;28;20035;-74
2022/08/17 06:16:38;;;;;;;33.08;23.10;;;22.70;70.50;;;;;;5116576;28;20031;-74
2022/08/17 06:19:20;;;;;;;35.03;22.52;;;22.70;70.70;;;;;;5116559;28;20051;-74
2022/08/17 06:21:50;;;;;;;32.05;22.42;;;22.60;70.60;;;;;;5116487;28;20162;-73
2022/08/17 06:24:26;;;;;;;32.10;21.55;;;22.70;70.60;;;;;;5116531;28;20027;-73
2022/08/17 06:26:58;;;;;;;32.72;22.55;;;22.80;70.60;;;;;;5116259;28;20054;-74
2022/08/17 06:29:34;;;;;;;33.70;21.58;;;22.80;70.60;;;;;;5116247;28;20027;-74
2022/08/17 06:32:01;;;;;;;35.88;21.92;;;22.80;70.60;;;;;;5116424;28;20028;-73
2022/08/17 06:34:28;;;;;;;35.60;21.58;;;22.90;70.90;;;;;;5116144;28;20028;-74
2022/08/17 06:37:00;;;;;;;35.65;22.83;;;22.90;70.90;;;;;;5116134;28;20024;-74
2022/08/17 06:40:04;;;;;;;34.65;22.35;;;23.00;71.00;;;;;;5116099;28;20021;-74
2022/08/17 06:42:39;;;;;;;33.25;22.23;;;23.00;70.90;;;;;;5116043;28;20036;-74
2022/08/17 06:45:30;;;;;;;32.88;22.17;;;23.00;70.70;;;;;;5116027;28;20055;-74
2022/08/17 06:48:14;;;;;;;35.95;22.02;;;23.10;70.70;;;;;;5115925;28;20024;-74
2022/08/17 06:50:58;;;;;;;33.05;21.38;;;23.10;70.80;;;;;;5115932;28;20483;-74
2022/08/17 06:53:43;;;;;;;36.45;22.02;;;23.20;70.80;;;;;;5116039;28;20529;-74
2022/08/17 06:56:18;;;;;;;29.75;20.75;;;23.20;70.00;;;;;;5115773;28;20034;-74
2022/08/17 06:58:44;;;;;;;34.13;22.27;;;23.20;70.50;;;;;;5115944;28;20027;-74
2022/08/17 07:01:17;;;;;;;37.35;22.25;;;23.20;70.40;;;;;;5115824;28;20028;-74
2022/08/17 07:03:52;;;;;;;;;;;23.30;70.40;;;;;;5116094;28;20062;-74
2022/08/17 07:06:22;;;;;;;35.13;22.95;;;23.20;70.40;;;;;;5115625;28;19915;-74
2022/08/17 07:08:50;;;;;;;34.65;22.42;;;23.20;70.90;;;;;;5115321;28;20063;-74
2022/08/17 07:11:24;;;;;;;31.00;21.90;;;23.20;70.90;;;;;;5115435;28;20031;-74
2022/08/17 07:14:00;;;;;;;35.78;22.23;;;23.20;70.50;;;;;;5115446;28;20024;-74
2022/08/17 07:16:38;;;;;;;31.77;21.38;;;23.20;70.30;;;;;;5115392;28;20024;-74
2022/08/17 07:19:04;;;;;;;32.20;20.98;;;23.30;70.10;;;;;;5115384;28;20107;-74
2022/08/17 07:21:37;;;;;;;28.33;19.98;;;23.30;70.00;;;;;;5115246;28;20035;-74
2022/08/17 07:24:19;;;;;;;29.80;20.15;;;23.30;70.20;;;;;;5115165;28;20017;-74
2022/08/17 07:26:48;;;;;;;33.70;21.73;;;23.40;70.20;;;;;;5115288;28;20050;-74
2022/08/17 07:29:16;;;;;;;28.63;20.35;;;23.40;69.90;;;;;;5115036;28;20024;-74
2022/08/17 07:31:43;;;;;;;32.20;20.33;;;23.50;69.70;;;;;;5115085;28;20020;-74
2022/08/17 07:34:13;;;;;;;32.85;22.38;;;23.50;69.40;;;;;;5115165;28;20029;-74
2022/08/17 07:36:42;;;;;;;29.55;21.17;;;23.50;69.40;;;;;;5115134;28;20016;-74
2022/08/17 07:39:09;;;;;;;33.55;22.13;;;23.50;69.40;;;;;;5114979;28;20075;-74
2022/08/17 07:41:39;;;;;;;31.27;20.50;;;23.50;69.40;;;;;;5114894;28;20031;-74
2022/08/17 07:44:14;;;;;;;30.48;20.98;;;23.50;69.40;;;;;;5114892;28;20024;-74
2022/08/17 07:49:46;;;;;;;28.58;20.52;;;23.60;69.50;;;;;;5114995;28;20031;-74
2022/08/17 07:52:31;;;;;;;28.75;19.77;;;23.50;69.40;;;;;;5114772;28;20035;-74
2022/08/17 07:54:57;;;;;;;31.40;20.35;;;23.50;69.30;;;;;;5114654;28;20024;-74
2022/08/17 07:57:31;;;;;;;29.15;18.52;;;23.50;69.40;;;;;;5114569;28;20122;-74
2022/08/17 08:00:00;;;;;;;33.33;20.35;;;23.50;69.50;;;;;;5114714;28;20050;-74
2022/08/17 08:02:37;;;;;;;30.70;20.83;;;23.50;69.50;;;;;;5114501;28;20087;-74
2022/08/17 08:05:20;;;;;;;30.20;19.85;;;23.60;69.50;;;;;;5114478;28;20020;-74
2022/08/17 08:07:53;;;;;;;29.83;19.85;;;23.60;69.50;;;;;;5114396;28;20028;-74
2022/08/17 08:10:38;;;;;;;28.30;19.58;;;23.60;69.50;;;;;;5114209;28;20047;-74
2022/08/17 08:13:24;;;;;;;26.70;18.95;;;23.70;69.00;;;;;;5114337;28;20027;-74
2022/08/17 08:15:53;;;;;;;32.92;21.13;;;23.70;68.70;;;;;;5114230;28;20022;-74
2022/08/17 08:18:24;;;;;;;28.98;20.33;;;23.60;68.60;;;;;;5114154;28;20031;-74
2022/08/17 08:21:08;;;;;;;27.88;20.33;;;23.40;68.60;;;;;;5114328;28;20043;-74
2022/08/17 08:23:36;;;;;;;33.92;20.73;;;23.30;69.70;;;;;;5114147;28;20028;-74
2022/08/17 08:26:20;;;;;;;34.60;22.20;;;23.20;71.00;;;;;;5113986;28;20160;-74
2022/08/17 08:28:51;;;;;;;33.05;21.60;;;23.20;71.70;;;;;;5113945;28;20039;-74
2022/08/17 08:31:50;;;;;;;36.45;22.13;;;23.20;72.10;;;;;;5113985;28;20046;-74
2022/08/17 08:34:29;;;;;;;36.40;23.00;;;23.20;72.80;;;;;;5114097;28;20020;-74
2022/08/17 08:37:16;;;;;;;36.95;23.50;;;23.10;73.60;;;;;;5113347;28;20024;-74
2022/08/17 08:39:52;;;;;;;35.03;22.73;;;23.00;73.40;;;;;;5114027;28;20024;-74
2022/08/17 08:42:31;;;;;;;34.90;22.80;;;22.90;74.40;;;;;;5113990;28;20030;-74
2022/08/17 08:45:33;;;;;;;40.85;24.50;;;22.70;75.20;;;;;;5113811;28;20024;-74
2022/08/17 08:48:12;;;;;;;37.70;23.45;;;22.70;76.50;;;;;;5109688;28;20036;-74
2022/08/17 08:51:19;;;;;;;35.88;23.77;;;22.70;77.20;;;;;;5113887;28;20024;-74
2022/08/17 08:54:03;;;;;;;31.95;22.85;;;22.80;76.40;;;;;;5091562;28;20055;-74
2022/08/17 08:56:47;;;;;;;37.90;23.70;;;22.90;76.70;;;;;;5112796;28;20024;-74
2022/08/17 08:59:35;;;;;;;36.05;24.45;;;22.90;76.80;;;;;;5112696;28;20023;-74
2022/08/17 09:02:57;;;;;;;36.50;23.25;;;22.90;76.90;;;;;;5113747;28;20024;-74
2022/08/17 09:05:38;;;;;;;34.45;23.50;;;23.10;76.70;;;;;;5091524;28;20119;-74
2022/08/17 09:08:12;;;;;;;36.88;23.60;;;23.30;75.30;;;;;;5091382;28;20037;-74
2022/08/17 09:10:59;;;;;;;32.88;22.80;;;23.40;75.80;;;;;;5107981;28;20032;-74
2022/08/17 09:14:07;;;;;;;31.77;21.02;;;23.60;75.60;;;;;;5113622;28;20024;-74
2022/08/17 09:17:01;;;;;;;29.73;21.33;;;23.80;74.80;;;;;;5113592;28;20459;-74
2022/08/17 09:19:37;;;;;;;30.63;20.27;;;23.90;73.70;;;;;;5113371;28;20024;-74
2022/08/17 09:22:30;;;;;;;29.73;19.30;;;24.00;73.70;;;;;;5113402;28;20045;-74
2022/08/17 09:24:59;;;;;;;27.38;18.17;;;24.20;72.40;;;;;;5113409;28;20012;-75
2022/08/17 09:27:48;;;;;;;29.13;20.15;;;24.20;70.90;;;;;;5113255;28;20020;-74
2022/08/17 09:30:13;;;;;;;28.95;19.48;;;24.30;70.70;;;;;;5109680;28;20032;-74
2022/08/17 09:32:50;;;;;;;28.50;18.65;;;24.30;70.80;;;;;;5113396;28;20080;-74
2022/08/17 09:35:31;;;;;;;27.65;18.38;;;24.30;70.70;;;;;;5113430;28;20020;-74
2022/08/17 09:38:08;;;;;;;27.50;18.42;;;24.40;70.80;;;;;;5113375;28;20028;-74
2022/08/17 09:40:54;;;;;;;27.35;18.55;;;24.50;70.30;;;;;;5113209;28;20024;-74
2022/08/17 09:43:34;;;;;;;28.17;18.27;;;24.50;70.00;;;;;;5113344;28;20031;-74
2022/08/17 09:46:17;;;;;;;25.38;18.08;;;24.50;69.70;;;;;;5113202;28;20028;-74
2022/08/17 09:49:09;;;;;;;25.33;18.50;;;24.50;69.40;;;;;;5117214;28;20039;-74
2022/08/17 09:51:38;;;;;;;28.92;19.08;;;24.50;68.90;;;;;;5106709;28;20028;-74
2022/08/17 09:54:28;;;;;;;27.88;19.83;;;24.50;68.40;;;;;;5116988;28;20027;-74
2022/08/17 09:57:03;;;;;;;28.52;20.50;;;24.40;68.70;;;;;;5116988;28;20020;-74
2022/08/17 09:59:35;;;;;;;28.77;20.80;;;24.40;69.40;;;;;;5116918;28;20107;-74
2022/08/17 10:02:34;;;;;;;35.83;20.83;;;24.30;69.10;;;;;;5117030;28;20024;-74
2022/08/17 10:05:06;;;;;;;32.33;22.13;;;24.30;68.90;;;;;;5116814;28;20028;-74
2022/08/17 10:07:55;;;;;;;;;;;24.10;68.70;;;;;;5117121;28;20057;-74
2022/08/17 10:10:28;;;;;;;28.05;19.50;;;24.00;69.10;;;;;;5116557;28;19916;-74
2022/08/17 10:13:06;;;;;;;29.35;20.02;;;23.80;69.60;;;;;;5116688;28;20020;-74
2022/08/17 10:15:43;;;;;;;28.67;19.05;;;23.90;69.30;;;;;;5116767;28;20020;-74
2022/08/17 10:18:33;;;;;;;27.73;18.65;;;23.90;68.60;;;;;;5116694;28;20079;-74
2022/08/17 10:26:47;;;;;;;28.23;19.23;;;23.90;68.40;;;;;;5116497;28;20035;-74
2022/08/17 10:29:23;;;;;;;26.33;19.02;;;23.90;69.20;;;;;;5116231;28;20028;-74
2022/08/17 10:31:59;;;;;;;27.33;18.55;;;23.90;69.60;;;;;;5116315;28;20024;-74
2022/08/17 10:34:46;;;;;;;33.22;19.10;;;24.00;69.60;;;;;;5116255;28;20031;-74
2022/08/17 10:37:18;;;;;;;29.88;20.10;;;24.00;69.50;;;;;;5116336;28;20036;-74
2022/08/17 10:40:07;;;;;;;31.17;20.80;;;24.00;69.50;;;;;;5116148;28;20036;-74
2022/08/17 10:42:56;;;;;;;33.40;20.95;;;24.00;69.90;;;;;;5116161;28;20028;-74
2022/08/17 10:45:56;;;;;;;30.13;20.67;;;24.00;70.20;;;;;;5116012;28;20044;-74
2022/08/17 10:48:30;;;;;;;29.25;20.33;;;24.00;70.10;;;;;;5096425;28;20184;-74
2022/08/17 10:50:58;;;;;;;32.88;22.13;;;23.90;70.20;;;;;;5115897;28;20020;-74
2022/08/17 10:53:42;;;;;;;32.63;21.45;;;23.90;70.70;;;;;;5115976;28;20020;-74
2022/08/17 10:56:10;;;;;;;35.10;22.40;;;23.90;71.30;;;;;;5114845;28;20032;-74
2022/08/17 10:58:46;;;;;;;34.33;22.55;;;23.90;71.70;;;;;;5115115;28;20047;-74
2022/08/17 11:01:11;;;;;;;33.13;22.17;;;24.00;71.70;;;;;;5115750;28;20050;-74
2022/08/17 11:03:51;;;;;;;34.60;22.75;;;24.00;71.70;;;;;;5115638;28;20024;-74
2022/08/17 11:06:33;;;;;;;35.97;22.88;;;24.00;72.90;;;;;;5115696;28;20021;-74
2022/08/17 11:09:25;;;;;;;33.25;20.98;;;24.10;72.10;;;;;;5115432;28;20444;-74
2022/08/17 11:12:05;;;;;;;31.45;22.48;;;24.10;71.80;;;;;;5105135;28;20036;-74
2022/08/17 11:14:59;;;;;;;37.25;23.90;;;24.00;71.50;;;;;;5115610;28;20024;-74
2022/08/17 11:17:34;;;;;;;36.88;25.50;;;24.00;71.80;;;;;;5115540;28;20444;-74
2022/08/17 11:20:33;;;;;;;37.78;24.65;;;24.00;72.20;;;;;;5115489;28;20032;-74
2022/08/17 11:23:13;;;;;;;37.47;25.95;;;24.00;72.40;;;;;;5104960;28;20095;-74
2022/08/17 11:25:51;;;;;;;41.40;26.20;;;23.90;72.50;;;;;;5115250;28;20032;-74
2022/08/17 11:28:34;;;;;;;37.55;26.02;;;23.90;73.10;;;;;;5115192;28;20028;-74
2022/08/17 11:31:05;;;;;;;40.55;27.08;;;23.90;73.30;;;;;;5115130;28;20047;-74
2022/08/17 11:33:33;;;;;;;40.17;25.98;;;23.90;73.50;;;;;;5115102;28;20027;-74
2022/08/17 11:36:11;;;;;;;42.60;26.98;;;23.90;73.60;;;;;;5115015;28;20045;-74
2022/08/17 11:38:48;;;;;;;40.90;26.60;;;23.90;74.30;;;;;;5114991;28;20028;-74
2022/08/17 11:41:45;;;;;;;40.47;25.73;;;23.90;74.40;;;;;;5114963;28;20032;-74
2022/08/17 11:44:36;;;;;;;37.80;24.27;;;24.00;74.20;;;;;;5114926;28;20031;-74
2022/08/17 11:53:36;;;;;;;41.75;27.15;;;24.00;74.60;;;;;;5114954;28;20047;-74
2022/08/17 11:56:05;;;;;;;41.47;26.25;;;24.00;74.90;;;;;;5114644;28;20020;-74
2022/08/17 11:58:38;;;;;;;39.17;26.08;;;24.00;74.70;;;;;;5114577;28;20024;-74
2022/08/17 12:01:20;;;;;;;38.40;25.80;;;24.00;74.30;;;;;;5114600;28;20024;-74
2022/08/17 12:03:47;;;;;;;38.95;25.02;;;24.00;73.90;;;;;;5114595;28;20030;-74
2022/08/17 12:06:26;;;;;;;37.08;24.73;;;24.00;73.90;;;;;;5114463;28;20024;-74
2022/08/17 12:09:18;;;;;;;40.80;26.02;;;24.00;73.80;;;;;;5114260;28;20040;-74
2022/08/17 12:11:44;;;;;;;39.90;25.60;;;23.90;73.80;;;;;;5113547;28;20048;-74
2022/08/17 12:14:15;;;;;;;39.40;25.08;;;24.00;74.10;;;;;;5114283;28;20020;-74
2022/08/17 12:16:42;;;;;;;39.33;25.42;;;23.90;73.90;;;;;;5114331;28;20016;-74
2022/08/17 12:19:18;;;;;;;40.53;25.63;;;23.90;74.20;;;;;;5113256;28;20028;-74
2022/08/17 12:21:53;;;;;;;39.53;25.00;;;23.90;74.20;;;;;;5114226;28;20023;-74
2022/08/17 12:24:32;;;;;;;42.22;25.95;;;24.00;74.40;;;;;;5114154;28;20023;-74
2022/08/17 12:27:00;;;;;;;37.30;25.02;;;23.90;74.60;;;;;;5113047;28;20028;-74
2022/08/17 12:29:28;;;;;;;38.15;25.55;;;24.00;74.60;;;;;;5112970;28;20012;-74
2022/08/17 12:31:55;;;;;;;39.80;25.40;;;24.00;74.50;;;;;;5113992;28;20016;-74
2022/08/17 12:34:39;;;;;;;39.35;26.67;;;24.10;74.40;;;;;;5113948;28;20029;-74
2022/08/17 12:37:30;;;;;;;42.72;26.42;;;24.10;74.40;;;;;;5113964;28;20038;-74
2022/08/17 12:39:57;;;;;;;41.67;27.20;;;23.80;74.30;;;;;;5113917;28;20016;-74
2022/08/17 12:42:30;;;;;;;41.10;26.45;;;23.70;75.00;;;;;;5112862;28;20031;-74
2022/08/17 12:44:57;;;;;;;42.40;26.77;;;23.80;75.50;;;;;;5113861;28;20040;-74
2022/08/17 12:47:23;;;;;;;42.13;27.10;;;23.70;75.90;;;;;;5113622;28;20020;-74
2022/08/17 12:49:52;;;;;;;41.38;26.73;;;23.70;76.00;;;;;;5113745;28;20099;-74
2022/08/17 12:52:23;;;;;;;42.75;26.40;;;23.70;75.80;;;;;;5113690;28;20091;-74
2022/08/17 12:55:21;;;;;;;44.13;26.33;;;23.70;76.00;;;;;;5113644;28;20020;-74
2022/08/17 12:57:53;;;;;;;44.17;27.30;;;23.70;75.90;;;;;;5111516;28;20330;-74
2022/08/17 13:00:26;;;;;;;;;;;23.70;76.30;;;;;;5113143;28;20020;-74
2022/08/17 13:03:11;;;;;;;46.00;27.77;;;23.70;75.90;;;;;;5113592;28;19911;-74
2022/08/17 13:05:52;;;;;;;41.22;25.50;;;23.60;76.00;;;;;;5113588;28;20020;-74
2022/08/17 13:08:24;;;;;;;41.30;26.98;;;23.60;75.90;;;;;;5112228;28;20020;-74
2022/08/17 13:10:58;;;;;;;;;;;23.60;76.20;;;;;;5112985;28;20016;-74
2022/08/17 13:13:27;;;;;;;40.15;25.70;;;23.50;75.90;;;;;;5112459;28;19953;-74
2022/08/17 13:15:56;;;;;;;42.35;26.35;;;23.40;76.30;;;;;;5113583;28;20021;-75
2022/08/17 13:18:41;;;;;;;42.58;25.70;;;23.40;76.50;;;;;;5112396;28;20020;-75
2022/08/17 13:21:11;;;;;;;40.30;26.08;;;23.40;76.30;;;;;;5113384;28;20040;-74
2022/08/17 13:23:37;;;;;;;36.25;24.60;;;23.40;76.80;;;;;;5117750;28;20051;-74
2022/08/17 13:26:06;;;;;;;39.92;25.15;;;23.30;76.50;;;;;;5117546;28;20039;-74
2022/08/17 13:28:34;;;;;;;38.42;24.67;;;23.30;76.10;;;;;;5116393;28;20028;-74
2022/08/17 13:31:19;;;;;;;38.67;24.58;;;23.30;76.00;;;;;;5116511;28;20028;-74